Putnam, Oklahoma
Current Conditions -  °F | °C
As of 6:35 AM on Monday 20 Oct 2014 (Local Time) from KCLK Reporting Station
Broken Clouds Broken Clouds  
Wind Chill: 15°   Ceiling: 8000
Heat Index: 15°   Visibility: 10mi
Dew Point: 12°   Wind: 5mph
Humidity: 82%   Direction: 160°SSE
Pressure: 30.05"   Gusts: NA
Location:  35.86°N, 98.97°W
Report Text: KCLK 201135Z AUTO 16004KT 10SM SCT070 BKN080 15/12 A3005 RMK AO2
Loading
Personal Weather Stations






























Interactive Weather Map
Tropical Storm Tracking
New forecast layout! Learn more

10-Day Weather Forecast

Advertisements
Track Severe Weather on mobile